Time;durP1;ratioP1;P1;durP2;ratioP2;P2;SDS_P1;SDS_P2;PMS_P1;PMS_P2;Temp;Humidity;BMP_temperature;BMP_pressure;BME280_temperature;BME280_humidity;BME280_pressure;Samples;Min_cycle;Max_cycle;Signal;HPM_P1;HPM_P2
2023/01/03 00:01:45;;;;;;;14.50;7.23;;;3.70;99.90;;;;;;5097262;28;20586;-65
2023/01/03 00:04:14;;;;;;;13.67;7.23;;;3.80;99.90;;;;;;5069488;28;20202;-65
2023/01/03 00:06:44;;;;;;;14.50;7.67;;;3.80;99.90;;;;;;5064472;28;20667;-65
2023/01/03 00:09:16;;;;;;;17.93;7.20;;;3.70;99.90;;;;;;5069475;28;20200;-65
2023/01/03 00:14:35;;;;;;;16.23;7.30;;;3.60;99.90;;;;;;5066037;28;20554;-64
2023/01/03 00:17:06;;;;;;;15.50;6.97;;;3.50;99.90;;;;;;5066460;28;20234;-65
2023/01/03 00:19:36;;;;;;;11.90;7.17;;;3.40;99.90;;;;;;5053004;28;20208;-65
2023/01/03 00:22:05;;;;;;;14.90;7.07;;;3.30;99.90;;;;;;5063305;28;20196;-64
2023/01/03 00:24:34;;;;;;;12.00;7.20;;;3.30;99.90;;;;;;5062520;28;20204;-64
2023/01/03 00:27:05;;;;;;;13.33;7.10;;;3.30;99.90;;;;;;5065517;28;20226;-64
2023/01/03 00:29:34;;;;;;;12.70;7.20;;;3.30;99.90;;;;;;5069979;28;20203;-64
2023/01/03 00:32:04;;;;;;;10.47;6.93;;;3.30;99.90;;;;;;5061382;28;20199;-65
2023/01/03 00:34:32;;;;;;;11.00;6.90;;;3.20;99.90;;;;;;5072107;28;20202;-65
2023/01/03 00:37:04;;;;;;;9.97;6.93;;;3.20;99.90;;;;;;5070972;28;20204;-64
2023/01/03 00:39:33;;;;;;;14.53;7.10;;;3.10;99.90;;;;;;5072622;28;20554;-65
2023/01/03 00:42:01;;;;;;;11.10;7.17;;;3.10;99.90;;;;;;5072077;28;20196;-64
2023/01/03 00:44:30;;;;;;;11.70;7.23;;;3.10;99.90;;;;;;5068396;28;20593;-65
2023/01/03 00:46:58;;;;;;;13.43;6.97;;;3.00;99.90;;;;;;5068898;28;20772;-64
2023/01/03 00:49:28;;;;;;;12.37;7.73;;;3.10;99.90;;;;;;5065576;28;20284;-65
2023/01/03 00:51:57;;;;;;;15.77;8.17;;;3.10;99.90;;;;;;5065406;28;20192;-65
2023/01/03 00:54:25;;;;;;;23.47;8.20;;;3.10;99.90;;;;;;5064906;28;20192;-64
2023/01/03 00:56:54;;;;;;;16.03;8.70;;;3.20;99.90;;;;;;5059023;28;20200;-65
2023/01/03 00:59:23;;;;;;;15.13;8.57;;;3.20;99.90;;;;;;5060823;28;20209;-65
2023/01/03 01:01:53;;;;;;;17.50;9.20;;;3.20;99.90;;;;;;5069672;28;20199;-65
2023/01/03 01:04:26;;;;;;;22.67;9.67;;;3.20;99.90;;;;;;5069938;28;20226;-64
2023/01/03 01:06:58;;;;;;;18.00;9.07;;;3.30;99.90;;;;;;5065309;28;20215;-64
2023/01/03 01:09:29;;;;;;;20.60;9.33;;;3.40;99.90;;;;;;5069032;28;20275;-65
2023/01/03 01:11:58;;;;;;;15.03;8.67;;;3.40;99.90;;;;;;5060002;28;20794;-65
2023/01/03 01:14:28;;;;;;;17.13;9.37;;;3.30;99.90;;;;;;5080018;28;20188;-65
2023/01/03 01:17:00;;;;;;;15.30;9.80;;;3.30;99.90;;;;;;5066124;28;20293;-65
2023/01/03 01:19:30;;;;;;;12.00;8.90;;;3.20;99.90;;;;;;5069619;28;20295;-64
2023/01/03 01:22:00;;;;;;;19.27;10.47;;;3.20;99.90;;;;;;5063574;28;20198;-64
2023/01/03 01:24:29;;;;;;;19.37;10.93;;;3.20;99.90;;;;;;5064256;28;20638;-64
2023/01/03 01:26:57;;;;;;;24.20;10.23;;;3.30;99.90;;;;;;5063570;28;20651;-64
2023/01/03 01:29:26;;;;;;;16.17;10.57;;;3.30;99.90;;;;;;5065448;28;20203;-65
2023/01/03 01:31:54;;;;;;;20.60;11.03;;;3.40;99.90;;;;;;5063930;28;20200;-65
2023/01/03 01:34:23;;;;;;;24.90;12.00;;;3.40;99.90;;;;;;5066547;28;20180;-65
2023/01/03 01:36:52;;;;;;;19.93;11.70;;;3.30;99.90;;;;;;5075778;28;20275;-65
2023/01/03 01:39:24;;;;;;;20.37;11.63;;;3.30;99.90;;;;;;5072358;28;20291;-64
2023/01/03 01:44:52;;;;;;;20.00;10.50;;;3.10;99.90;;;;;;5069814;28;20257;-64
2023/01/03 01:47:36;;;;;;;22.67;11.97;;;3.10;99.90;;;;;;5074313;28;20279;-65
2023/01/03 01:50:13;;;;;;;20.43;11.80;;;3.00;99.90;;;;;;5069511;28;20215;-65
2023/01/03 01:52:48;;;;;;;25.97;12.80;;;3.00;99.90;;;;;;5075831;28;20690;-65
2023/01/03 01:55:21;;;;;;;27.20;14.10;;;3.10;99.90;;;;;;5069727;28;20192;-65
2023/01/03 01:57:50;;;;;;;24.00;13.60;;;3.20;99.90;;;;;;5074273;28;20310;-65
2023/01/03 02:00:19;;;;;;;28.80;14.00;;;3.20;99.90;;;;;;5067180;28;20230;-64
2023/01/03 02:02:51;;;;;;;27.10;14.53;;;3.20;99.90;;;;;;5072184;28;20225;-65
2023/01/03 02:05:21;;;;;;;27.67;15.00;;;3.20;99.90;;;;;;5073169;28;20558;-64
2023/01/03 02:07:50;;;;;;;29.73;14.47;;;3.10;99.90;;;;;;5067966;28;20205;-65
2023/01/03 02:10:28;;;;;;;27.43;14.50;;;3.10;99.90;;;;;;5065912;28;20189;-65
2023/01/03 02:13:05;;;;;;;22.93;13.77;;;3.10;99.90;;;;;;5070507;28;20677;-65
2023/01/03 02:15:56;;;;;;;33.07;14.77;;;3.00;99.90;;;;;;5070163;28;20236;-64
2023/01/03 02:18:37;;;;;;;29.50;15.33;;;3.10;99.90;;;;;;5099768;27;20657;-64
2023/01/03 02:21:40;;;;;;;33.33;16.13;;;3.10;99.90;;;;;;5070585;28;20216;-64
2023/01/03 02:24:36;;;;;;;28.03;14.63;;;3.10;99.90;;;;;;5055002;28;20204;-64
2023/01/03 02:27:21;;;;;;;30.50;15.00;;;3.10;99.90;;;;;;5071038;28;20216;-64
2023/01/03 02:30:31;;;;;;;29.53;15.70;;;3.00;99.90;;;;;;5067646;28;20784;-64
2023/01/03 02:33:07;;;;;;;33.60;16.40;;;3.00;99.90;;;;;;5072422;28;20207;-65
2023/01/03 02:35:41;;;;;;;28.43;15.83;;;3.00;99.90;;;;;;5068972;28;20195;-65
2023/01/03 02:38:15;;;;;;;33.60;15.57;;;3.00;99.90;;;;;;5068711;28;20191;-65
2023/01/03 02:40:49;;;;;;;27.60;15.50;;;3.00;99.90;;;;;;5072735;28;20964;-64
2023/01/03 02:43:22;;;;;;;32.43;16.87;;;2.90;99.90;;;;;;5071452;28;20199;-64
2023/01/03 02:46:03;;;;;;;33.10;17.13;;;3.00;99.90;;;;;;5072023;28;20196;-64
2023/01/03 02:48:41;;;;;;;35.47;16.80;;;3.10;99.90;;;;;;5067691;28;20279;-64
2023/01/03 02:51:14;;;;;;;32.50;16.70;;;3.10;99.90;;;;;;5071176;28;20202;-64
2023/01/03 02:53:47;;;;;;;29.20;15.97;;;3.10;99.90;;;;;;5070789;28;20210;-64
2023/01/03 02:56:21;;;;;;;38.30;17.73;;;3.10;99.90;;;;;;5070021;28;20283;-64
2023/01/03 02:58:56;;;;;;;31.33;17.40;;;3.00;99.90;;;;;;5075442;28;20286;-65
2023/01/03 03:01:29;;;;;;;33.03;16.50;;;3.00;99.90;;;;;;5072046;28;20220;-64
2023/01/03 03:03:59;;;;;;;28.37;15.70;;;2.90;99.90;;;;;;5074271;28;20204;-64
2023/01/03 03:06:36;;;;;;;37.80;17.70;;;3.00;99.90;;;;;;5055317;28;20196;-64
2023/01/03 03:09:05;;;;;;;29.67;16.47;;;3.00;99.90;;;;;;5073694;28;20204;-64
2023/01/03 03:14:25;;;;;;;36.17;17.30;;;3.00;99.90;;;;;;5073033;28;20202;-64
2023/01/03 03:17:00;;;;;;;36.13;16.83;;;3.10;99.90;;;;;;5070113;28;20239;-64
2023/01/03 03:25:18;;;;;;;31.73;17.17;;;3.50;99.90;;;;;;5070120;28;20353;-65
2023/01/03 03:30:41;;;;;;;34.00;16.53;;;3.80;99.90;;;;;;5068605;28;20214;-65
2023/01/03 03:33:15;;;;;;;38.80;16.77;;;3.80;99.90;;;;;;5072826;28;20577;-65
2023/01/03 03:35:47;;;;;;;33.23;15.73;;;4.00;99.90;;;;;;5055484;28;20314;-65
2023/01/03 03:38:25;;;;;;;29.13;16.17;;;4.10;99.90;;;;;;5070727;28;20200;-65
2023/01/03 03:46:54;;;;;;;34.30;16.43;;;4.30;99.90;;;;;;5065853;28;20199;-65
2023/01/03 03:49:40;;;;;;;34.30;15.07;;;4.40;99.90;;;;;;5070200;28;20196;-65
2023/01/03 03:52:13;;;;;;;25.87;14.37;;;4.40;99.90;;;;;;5070239;28;20197;-65
2023/01/03 03:54:46;;;;;;;25.23;15.10;;;4.40;99.90;;;;;;5069948;28;20203;-65
2023/01/03 03:57:21;;;;;;;22.50;13.70;;;4.50;99.90;;;;;;5069232;28;20232;-65
2023/01/03 03:59:55;;;;;;;23.47;13.80;;;4.40;99.90;;;;;;5070737;28;20184;-65
2023/01/03 04:02:25;;;;;;;29.63;13.67;;;4.40;99.90;;;;;;5065702;28;20590;-65
2023/01/03 04:04:58;;;;;;;24.30;13.97;;;4.40;99.90;;;;;;5067628;28;20196;-65
2023/01/03 04:07:27;;;;;;;28.67;13.30;;;4.40;99.90;;;;;;5069429;28;20195;-65
2023/01/03 04:09:56;;;;;;;26.93;13.17;;;4.40;99.90;;;;;;5073183;28;20214;-65
2023/01/03 04:12:24;;;;;;;20.47;12.83;;;4.40;99.90;;;;;;5072464;28;20216;-65
2023/01/03 04:14:53;;;;;;;23.27;13.40;;;4.40;99.90;;;;;;5073038;28;20203;-66
2023/01/03 04:17:21;;;;;;;23.30;13.70;;;4.40;99.90;;;;;;5068021;28;20224;-65
2023/01/03 04:19:50;;;;;;;24.93;13.03;;;4.40;99.90;;;;;;5062946;28;20207;-65
2023/01/03 04:22:19;;;;;;;18.70;11.97;;;4.40;99.90;;;;;;5070213;28;20208;-65
2023/01/03 04:24:48;;;;;;;23.10;12.63;;;4.40;99.90;;;;;;5067701;28;20265;-65
2023/01/03 04:27:16;;;;;;;21.40;12.07;;;4.40;99.90;;;;;;5071700;28;20650;-65
2023/01/03 04:29:44;;;;;;;19.57;11.63;;;4.50;99.90;;;;;;5066656;28;20211;-65
2023/01/03 04:32:13;;;;;;;17.97;11.37;;;4.50;99.90;;;;;;5069675;28;20601;-65
2023/01/03 04:34:42;;;;;;;19.00;11.70;;;4.50;99.90;;;;;;5069082;28;20240;-65
2023/01/03 04:37:10;;;;;;;24.87;11.33;;;4.60;99.90;;;;;;5103930;28;20187;-65
2023/01/03 04:39:40;;;;;;;22.47;12.17;;;4.60;99.90;;;;;;5067623;28;20202;-65
2023/01/03 04:44:51;;;;;;;20.47;12.00;;;4.70;99.90;;;;;;5066448;28;20201;-65
2023/01/03 04:47:20;;;;;;;19.43;11.40;;;4.80;99.90;;;;;;5065207;28;20676;-65
2023/01/03 04:49:48;;;;;;;26.03;12.73;;;4.80;99.90;;;;;;5066223;28;20634;-65
2023/01/03 04:52:17;;;;;;;23.30;11.87;;;4.90;99.90;;;;;;5064415;28;20525;-65
2023/01/03 04:54:47;;;;;;;22.23;12.63;;;4.90;99.90;;;;;;5074128;28;20195;-65
2023/01/03 04:57:15;;;;;;;26.70;13.23;;;4.90;99.90;;;;;;5070455;28;20560;-65
2023/01/03 04:59:44;;;;;;;25.40;12.80;;;4.90;99.90;;;;;;5070572;28;20208;-65
2023/01/03 05:02:12;;;;;;;25.13;13.27;;;5.00;99.90;;;;;;5069757;28;20215;-65
2023/01/03 05:04:43;;;;;;;24.07;13.00;;;5.00;99.90;;;;;;5056719;28;20193;-64
2023/01/03 05:07:12;;;;;;;24.00;13.17;;;5.00;99.90;;;;;;5058487;28;20199;-65
2023/01/03 05:09:40;;;;;;;24.57;12.90;;;5.00;99.90;;;;;;5062237;28;20201;-65
2023/01/03 05:12:11;;;;;;;27.37;13.90;;;5.00;99.90;;;;;;5063860;28;20192;-65
2023/01/03 05:14:40;;;;;;;31.10;14.00;;;5.10;99.90;;;;;;5073877;28;20200;-65
2023/01/03 05:17:09;;;;;;;28.50;13.93;;;5.10;99.90;;;;;;5093685;28;20323;-65
2023/01/03 05:25:48;;;;;;;27.07;14.00;;;5.20;99.90;;;;;;5075994;28;20199;-65
2023/01/03 05:27:57;;;;;;;33.70;16.43;;;5.20;99.90;;;;;;5056266;28;20329;-66
2023/01/03 05:30:25;;;;;;;27.53;15.20;;;5.20;99.90;;;;;;5070618;28;20197;-65
2023/01/03 05:32:54;;;;;;;29.50;15.47;;;5.20;99.90;;;;;;5064989;28;20730;-65
2023/01/03 05:35:22;;;;;;;35.77;15.27;;;5.20;99.90;;;;;;5079223;28;20199;-65
2023/01/03 05:37:53;;;;;;;31.90;16.53;;;5.20;99.90;;;;;;5076280;28;20544;-65
2023/01/03 05:40:21;;;;;;;32.67;16.10;;;5.20;99.90;;;;;;5062875;28;20212;-65
2023/01/03 05:42:50;;;;;;;38.37;17.37;;;5.20;99.90;;;;;;5071760;28;20532;-65
2023/01/03 05:45:24;;;;;;;36.67;16.37;;;5.30;99.90;;;;;;5071694;28;20188;-65
2023/01/03 05:47:52;;;;;;;36.27;17.93;;;5.30;99.90;;;;;;5068616;28;20272;-65
2023/01/03 05:50:21;;;;;;;33.40;17.30;;;5.30;99.90;;;;;;5068441;28;20199;-65
2023/01/03 05:52:49;;;;;;;34.40;16.80;;;5.40;99.90;;;;;;5070309;28;20727;-65
2023/01/03 05:55:18;;;;;;;40.40;17.90;;;5.40;99.90;;;;;;5059807;28;20221;-65
2023/01/03 05:57:46;;;;;;;35.17;17.93;;;5.50;99.90;;;;;;5049691;28;20706;-65
2023/01/03 06:00:15;;;;;;;33.67;17.20;;;5.50;99.90;;;;;;5061817;28;20204;-65
2023/01/03 06:02:46;;;;;;;37.10;18.00;;;5.60;99.90;;;;;;5060532;28;20303;-65
2023/01/03 06:05:14;;;;;;;37.83;18.77;;;5.70;99.90;;;;;;5070157;28;20204;-65
2023/01/03 06:07:42;;;;;;;40.53;18.57;;;5.80;99.90;;;;;;5078094;28;20188;-65
2023/01/03 06:10:11;;;;;;;35.30;18.07;;;5.80;99.90;;;;;;5070416;28;20200;-65
2023/01/03 06:12:39;;;;;;;42.47;19.73;;;5.90;99.90;;;;;;5068509;28;20200;-65
2023/01/03 06:15:08;;;;;;;33.37;18.03;;;5.90;99.90;;;;;;5071098;28;20219;-65
2023/01/03 06:17:54;;;;;;;38.60;17.47;;;6.00;99.90;;;;;;5066988;28;20224;-66
2023/01/03 06:20:24;;;;;;;34.30;18.00;;;6.00;99.90;;;;;;5069023;28;20211;-65
2023/01/03 06:22:53;;;;;;;39.23;19.03;;;6.00;99.90;;;;;;5063276;28;20216;-65
2023/01/03 06:25:22;;;;;;;39.30;18.13;;;6.00;99.90;;;;;;5064691;28;20204;-65
2023/01/03 06:27:50;;;;;;;40.43;19.10;;;6.10;99.90;;;;;;5063910;28;20199;-65
2023/01/03 06:30:19;;;;;;;37.27;18.17;;;6.10;99.90;;;;;;5065251;28;20206;-65
2023/01/03 06:32:48;;;;;;;36.73;19.47;;;6.10;99.90;;;;;;5068744;28;20196;-65
2023/01/03 06:35:19;;;;;;;37.23;18.73;;;6.10;99.90;;;;;;5071006;28;20193;-65
2023/01/03 06:37:49;;;;;;;40.50;19.10;;;6.10;99.90;;;;;;5066504;28;20207;-66
2023/01/03 06:40:18;;;;;;;32.33;17.40;;;6.20;99.90;;;;;;5062854;28;20272;-65
2023/01/03 06:42:46;;;;;;;34.90;17.90;;;6.20;99.90;;;;;;5065610;28;20227;-65
2023/01/03 06:53:40;;;;;;;34.47;18.17;;;6.30;99.90;;;;;;5066029;28;20192;-65
2023/01/03 06:56:10;;;;;;;36.20;17.37;;;6.40;99.90;;;;;;5073839;28;20191;-65
2023/01/03 06:58:38;;;;;;;35.87;16.97;;;6.40;99.90;;;;;;5066046;28;20326;-65
2023/01/03 07:01:07;;;;;;;35.67;17.20;;;6.40;99.90;;;;;;5051613;28;20271;-65
2023/01/03 07:03:36;;;;;;;34.23;16.83;;;6.50;99.90;;;;;;5063218;28;20307;-65
2023/01/03 07:06:04;;;;;;;37.20;16.97;;;6.50;99.90;;;;;;5065601;28;20203;-65
2023/01/03 07:08:35;;;;;;;34.43;16.60;;;6.50;99.90;;;;;;5067610;28;20635;-65
2023/01/03 07:11:09;;;;;;;29.60;15.43;;;6.50;99.90;;;;;;5063439;28;20207;-65
2023/01/03 07:16:25;;;;;;;33.87;15.90;;;6.60;99.90;;;;;;5065369;28;20311;-65
2023/01/03 07:18:54;;;;;;;28.43;15.53;;;6.70;99.90;;;;;;5062888;28;20220;-65
2023/01/03 07:21:23;;;;;;;39.07;15.73;;;6.70;99.90;;;;;;5068604;28;20273;-65
2023/01/03 07:23:53;;;;;;;38.40;15.27;;;6.70;99.90;;;;;;5062336;28;20223;-65
2023/01/03 07:26:25;;;;;;;31.43;15.30;;;6.80;99.90;;;;;;5072188;28;20555;-65
2023/01/03 07:28:54;;;;;;;34.60;16.07;;;6.80;99.90;;;;;;5066840;28;20602;-65
2023/01/03 07:31:22;;;;;;;30.73;15.07;;;6.80;99.90;;;;;;5068677;28;20188;-65
2023/01/03 07:33:52;;;;;;;35.17;14.87;;;6.80;99.90;;;;;;5065573;28;20236;-65
2023/01/03 07:36:21;;;;;;;35.50;16.23;;;6.90;99.90;;;;;;5068143;28;20199;-65
2023/01/03 07:38:50;;;;;;;33.30;15.70;;;6.90;99.90;;;;;;5058395;28;20196;-65
2023/01/03 07:41:18;;;;;;;33.43;14.90;;;6.90;99.90;;;;;;5066623;28;20211;-65
2023/01/03 07:43:48;;;;;;;32.87;16.20;;;6.90;99.90;;;;;;5071220;28;20298;-65
2023/01/03 07:46:18;;;;;;;31.33;15.67;;;7.00;99.90;;;;;;5069817;28;20200;-66
2023/01/03 07:48:48;;;;;;;32.20;15.00;;;7.00;99.90;;;;;;5071363;28;20201;-65
2023/01/03 07:51:18;;;;;;;34.53;15.93;;;7.10;99.90;;;;;;5068880;28;20200;-65
2023/01/03 07:53:49;;;;;;;38.03;16.27;;;7.10;99.90;;;;;;5068495;28;20188;-65
2023/01/03 07:56:19;;;;;;;33.93;16.40;;;7.10;99.90;;;;;;5068446;28;20192;-65
2023/01/03 07:58:50;;;;;;;34.30;16.33;;;7.20;99.90;;;;;;5062422;28;20225;-65
2023/01/03 08:01:21;;;;;;;30.83;15.97;;;7.20;99.90;;;;;;5057478;28;20203;-66
2023/01/03 08:03:50;;;;;;;33.27;16.57;;;7.20;99.90;;;;;;5054938;28;20220;-65
2023/01/03 08:06:21;;;;;;;35.90;17.00;;;7.20;99.90;;;;;;5070573;28;20230;-65
2023/01/03 08:13:16;;;;;;;35.00;17.07;;;7.20;99.90;;;;;;5063031;28;20196;-65
2023/01/03 08:14:26;;;;;;;32.30;16.83;;;7.30;99.90;;;;;;5060454;28;20184;-65
2023/01/03 08:16:55;;;;;;;36.90;18.37;;;7.30;99.90;;;;;;5062590;28;20231;-65
2023/01/03 08:19:24;;;;;;;36.93;18.70;;;7.30;99.90;;;;;;5059960;28;20279;-65
2023/01/03 08:21:52;;;;;;;36.83;18.37;;;7.30;99.90;;;;;;5064521;28;20188;-65
2023/01/03 08:24:21;;;;;;;41.80;18.60;;;7.30;99.90;;;;;;5054614;28;20228;-65
2023/01/03 08:26:49;;;;;;;34.53;18.37;;;7.30;99.90;;;;;;5068410;28;20200;-65
2023/01/03 08:29:18;;;;;;;35.73;17.33;;;7.30;99.90;;;;;;5070424;28;20275;-65
2023/01/03 08:31:52;;;;;;;33.67;17.73;;;7.40;99.90;;;;;;5061763;28;20547;-65
2023/01/03 08:34:22;;;;;;;35.27;16.50;;;7.40;99.90;;;;;;5068013;28;20287;-65
2023/01/03 08:37:00;;;;;;;30.70;16.90;;;7.30;99.90;;;;;;5059082;28;20200;-65
2023/01/03 08:39:33;;;;;;;30.40;16.80;;;7.40;99.90;;;;;;5067032;28;20241;-65
2023/01/03 08:42:05;;;;;;;28.83;15.57;;;7.50;99.90;;;;;;5055016;28;20645;-65
2023/01/03 08:44:34;;;;;;;32.13;15.60;;;7.50;99.90;;;;;;5066426;28;20655;-65
2023/01/03 08:47:08;;;;;;;26.57;15.47;;;7.50;99.90;;;;;;5069283;28;21582;-65
2023/01/03 08:49:40;;;;;;;28.57;14.50;;;7.50;99.90;;;;;;5063597;28;20566;-65
2023/01/03 08:52:08;;;;;;;26.10;13.60;;;7.50;99.90;;;;;;5069541;28;20188;-64
2023/01/03 08:54:39;;;;;;;22.93;12.80;;;7.50;99.90;;;;;;5070756;28;20214;-64
2023/01/03 08:57:07;;;;;;;25.13;12.57;;;7.50;99.90;;;;;;5070308;28;20219;-65
2023/01/03 08:59:36;;;;;;;19.60;10.37;;;7.50;99.90;;;;;;5071809;28;20550;-64
2023/01/03 09:02:04;;;;;;;28.90;11.80;;;7.50;99.90;;;;;;5075672;28;20196;-65
2023/01/03 09:04:34;;;;;;;22.47;11.47;;;7.50;99.90;;;;;;5067767;28;20686;-64
2023/01/03 09:07:03;;;;;;;17.53;9.97;;;7.60;99.90;;;;;;5068501;28;20194;-65
2023/01/03 09:09:31;;;;;;;24.63;11.67;;;7.60;99.90;;;;;;5070134;28;20203;-65
2023/01/03 09:12:00;;;;;;;23.53;11.33;;;7.60;99.90;;;;;;5069631;28;20532;-64
2023/01/03 09:14:30;;;;;;;17.50;9.53;;;7.60;99.90;;;;;;5069278;28;20629;-65
2023/01/03 09:16:59;;;;;;;18.10;9.97;;;7.60;99.90;;;;;;5064088;28;20231;-65
2023/01/03 09:19:28;;;;;;;18.63;9.33;;;7.60;99.90;;;;;;5066719;28;20246;-65
2023/01/03 09:21:58;;;;;;;14.27;9.10;;;7.70;99.90;;;;;;5055982;28;20547;-64
2023/01/03 09:24:26;;;;;;;17.27;9.40;;;7.70;99.90;;;;;;5066968;28;20212;-64
2023/01/03 09:26:55;;;;;;;16.13;8.63;;;7.70;99.90;;;;;;5059304;28;20204;-65
2023/01/03 09:29:23;;;;;;;23.87;8.80;;;7.70;99.90;;;;;;5098561;28;20272;-64
2023/01/03 09:31:51;;;;;;;17.80;8.80;;;7.80;99.90;;;;;;5061725;28;20196;-64
2023/01/03 09:34:20;;;;;;;17.60;8.20;;;7.80;99.90;;;;;;5066631;28;20199;-64
2023/01/03 09:36:48;;;;;;;14.60;7.63;;;7.90;99.90;;;;;;5066557;28;20216;-64
2023/01/03 09:39:18;;;;;;;16.23;8.03;;;7.90;99.90;;;;;;5066499;28;20528;-64
2023/01/03 09:43:11;;;;;;;14.73;7.53;;;7.90;99.90;;;;;;5054434;28;20200;-64
2023/01/03 09:44:38;;;;;;;14.27;7.27;;;8.00;99.90;;;;;;5064397;28;20216;-64
2023/01/03 09:47:06;;;;;;;14.63;7.57;;;8.00;99.90;;;;;;5061757;28;20199;-63
2023/01/03 09:49:38;;;;;;;14.20;7.20;;;8.00;99.90;;;;;;5060217;28;20716;-64
2023/01/03 10:04:12;;;;;;;11.23;6.17;;;8.20;99.90;;;;;;5057029;28;20302;-66
2023/01/03 10:06:51;;;;;;;17.20;6.83;;;8.10;99.90;;;;;;5064659;28;20200;-64
2023/01/03 10:09:27;;;;;;;8.83;6.20;;;8.10;99.90;;;;;;5062413;28;20199;-64
2023/01/03 10:12:08;;;;;;;13.63;6.20;;;8.20;99.90;;;;;;5062192;28;20805;-63
2023/01/03 10:14:53;;;;;;;8.67;5.77;;;8.20;99.90;;;;;;5056075;28;20200;-64
2023/01/03 10:17:28;;;;;;;10.47;5.60;;;8.20;99.90;;;;;;5054544;28;20221;-66
2023/01/03 10:20:12;;;;;;;7.47;6.03;;;8.30;99.90;;;;;;5059037;28;20199;-63
2023/01/03 10:22:41;;;;;;;9.77;6.00;;;8.40;99.90;;;;;;5064003;28;20207;-66
2023/01/03 10:25:15;;;;;;;10.40;6.00;;;8.30;99.90;;;;;;5094140;28;21192;-64
2023/01/03 10:27:47;;;;;;;10.10;5.67;;;8.40;99.90;;;;;;5062024;28;20184;-63
2023/01/03 10:30:18;;;;;;;5.87;5.03;;;8.50;99.90;;;;;;5056931;28;20657;-63
2023/01/03 10:33:13;;;;;;;7.43;4.93;;;8.50;99.90;;;;;;5060173;28;20556;-63
2023/01/03 10:35:42;;;;;;;9.73;5.20;;;8.50;99.90;;;;;;5060361;28;20197;-63
2023/01/03 10:38:10;;;;;;;7.07;5.20;;;8.50;99.90;;;;;;5064213;28;20187;-63
2023/01/03 10:40:43;;;;;;;9.63;6.00;;;8.60;99.90;;;;;;5067993;28;20275;-63
2023/01/03 10:43:16;;;;;;;8.27;5.27;;;8.70;99.90;;;;;;5059410;28;21013;-63
2023/01/03 10:45:53;;;;;;;6.50;4.90;;;8.70;99.90;;;;;;5068468;28;20209;-63
2023/01/03 10:48:23;;;;;;;13.57;5.90;;;8.80;99.90;;;;;;5062257;28;20205;-63
2023/01/03 10:50:52;;;;;;;10.70;5.40;;;8.80;99.90;;;;;;5062360;28;20196;-63
2023/01/03 10:53:22;;;;;;;7.27;5.33;;;8.90;99.90;;;;;;5067998;28;20202;-63
2023/01/03 10:55:53;;;;;;;7.43;4.90;;;9.00;99.90;;;;;;5068986;28;20647;-63
2023/01/03 10:58:24;;;;;;;7.80;4.90;;;9.10;99.90;;;;;;5072573;28;20234;-63
2023/01/03 11:01:20;;;;;;;8.87;4.83;;;9.10;99.90;;;;;;5068879;28;20196;-63
2023/01/03 11:04:12;;;;;;;8.60;5.07;;;9.20;99.90;;;;;;5063546;28;22247;-63
2023/01/03 11:07:04;;;;;;;7.87;4.17;;;9.40;99.90;;;;;;5101261;28;20210;-63
2023/01/03 11:09:42;;;;;;;9.50;4.60;;;9.50;99.90;;;;;;5069435;28;20739;-63
2023/01/03 11:12:26;;;;;;;12.17;4.50;;;9.30;99.90;;;;;;5064183;28;20196;-63
2023/01/03 11:14:59;;;;;;;10.27;4.30;;;9.20;99.90;;;;;;5057468;28;20642;-63
2023/01/03 11:17:29;;;;;;;16.33;4.60;;;9.10;99.90;;;;;;5062525;28;20290;-64
2023/01/03 11:19:58;;;;;;;6.03;4.50;;;9.10;99.90;;;;;;5061150;28;20531;-63
2023/01/03 11:22:36;;;;;;;9.67;4.57;;;9.00;99.90;;;;;;5058216;28;20192;-63
2023/01/03 11:25:23;;;;;;;11.80;5.03;;;8.90;99.90;;;;;;5065859;28;20596;-63
2023/01/03 11:28:08;;;;;;;10.07;4.73;;;8.90;99.90;;;;;;5063194;28;20657;-63
2023/01/03 11:30:53;;;;;;;8.00;4.57;;;8.90;99.90;;;;;;5069119;28;20191;-63
2023/01/03 11:33:50;;;;;;;6.60;4.30;;;8.90;99.90;;;;;;5063760;28;20192;-63
2023/01/03 11:36:36;;;;;;;4.83;4.33;;;9.00;99.90;;;;;;5055364;28;20781;-63
2023/01/03 11:39:19;;;;;;;10.03;4.93;;;9.30;99.90;;;;;;5063575;28;20203;-63
2023/01/03 11:42:14;;;;;;;5.77;3.97;;;9.40;99.90;;;;;;5074029;28;20184;-63
2023/01/03 11:45:16;;;;;;;9.80;4.70;;;9.40;99.90;;;;;;5063683;28;20247;-63
2023/01/03 11:47:54;;;;;;;11.70;4.40;;;9.50;99.90;;;;;;5042037;28;20227;-64
2023/01/03 11:50:28;;;;;;;7.03;4.20;;;9.50;99.90;;;;;;5058033;28;20753;-63
2023/01/03 11:53:02;;;;;;;11.93;4.40;;;9.40;99.90;;;;;;5062334;28;20312;-63
2023/01/03 11:55:51;;;;;;;14.17;4.60;;;9.40;99.90;;;;;;5050925;28;20795;-63
2023/01/03 11:58:46;;;;;;;8.53;4.63;;;9.30;99.90;;;;;;5055810;28;20664;-63
2023/01/03 12:01:25;;;;;;;20.40;4.37;;;9.30;99.90;;;;;;5053434;28;20228;-63
2023/01/03 12:04:12;;;;;;;7.87;4.50;;;9.30;99.90;;;;;;5059586;28;20219;-63
2023/01/03 12:06:48;;;;;;;10.93;4.53;;;9.20;99.90;;;;;;5055073;28;20191;-65
2023/01/03 12:09:24;;;;;;;6.03;4.07;;;9.20;99.90;;;;;;5062996;28;20222;-63
2023/01/03 12:12:33;;;;;;;7.77;4.13;;;9.30;99.90;;;;;;5058067;28;20197;-63
2023/01/03 12:15:12;;;;;;;10.97;4.30;;;9.40;99.90;;;;;;5035436;28;20216;-63
2023/01/03 12:17:47;;;;;;;10.70;4.00;;;9.60;99.90;;;;;;5059484;28;20812;-64
2023/01/03 12:20:22;;;;;;;19.77;4.27;;;9.70;99.90;;;;;;5061069;28;20189;-63
2023/01/03 12:22:54;;;;;;;16.03;3.97;;;9.70;99.90;;;;;;5057686;28;20196;-63
2023/01/03 12:25:28;;;;;;;9.37;4.10;;;9.60;99.90;;;;;;5051435;28;21350;-63
2023/01/03 12:28:02;;;;;;;8.77;3.70;;;9.60;99.90;;;;;;5060270;28;20206;-62
2023/01/03 12:30:41;;;;;;;11.53;4.00;;;9.70;99.90;;;;;;5060134;28;20192;-63
2023/01/03 12:33:24;;;;;;;12.70;4.27;;;9.70;99.90;;;;;;5060298;28;20211;-63
2023/01/03 12:36:00;;;;;;;12.33;4.60;;;9.80;99.90;;;;;;5061797;28;20200;-63
2023/01/03 12:38:34;;;;;;;5.07;3.60;;;9.70;99.90;;;;;;5058484;28;20643;-63
2023/01/03 12:41:13;;;;;;;12.23;4.37;;;9.60;99.90;;;;;;5059593;28;20195;-63
2023/01/03 12:43:48;;;;;;;19.17;4.80;;;9.60;99.90;;;;;;5060374;28;20333;-63
2023/01/03 12:46:20;;;;;;;7.23;3.70;;;9.60;99.90;;;;;;5064734;28;20219;-63
2023/01/03 12:48:58;;;;;;;9.23;3.80;;;9.70;99.90;;;;;;5060289;28;20203;-63
2023/01/03 12:51:29;;;;;;;14.20;4.10;;;9.70;99.90;;;;;;5061285;28;20275;-63
2023/01/03 12:54:14;;;;;;;11.30;3.90;;;9.70;99.90;;;;;;5062585;28;20249;-63
2023/01/03 12:56:59;;;;;;;9.90;4.43;;;9.80;99.90;;;;;;5065597;28;20516;-63
2023/01/03 12:59:53;;;;;;;7.80;3.23;;;9.80;99.90;;;;;;5065015;28;20567;-63
2023/01/03 13:02:28;;;;;;;12.33;4.07;;;9.70;99.90;;;;;;5060223;28;20600;-63
2023/01/03 13:05:07;;;;;;;9.70;4.10;;;9.80;99.90;;;;;;5057990;28;20199;-64
2023/01/03 13:07:40;;;;;;;10.20;3.83;;;9.70;99.90;;;;;;5058315;28;20395;-63
2023/01/03 13:10:16;;;;;;;8.83;3.70;;;9.70;99.90;;;;;;5057640;28;20207;-63
2023/01/03 13:12:48;;;;;;;16.23;4.20;;;9.80;99.90;;;;;;5059994;28;20196;-63
2023/01/03 13:15:25;;;;;;;9.50;3.63;;;9.80;99.90;;;;;;5056488;28;20207;-63
2023/01/03 13:18:35;;;;;;;7.43;3.63;;;9.80;99.90;;;;;;5058476;28;20219;-63
2023/01/03 13:21:37;;;;;;;9.47;3.50;;;9.80;99.90;;;;;;5059587;28;20204;-63
2023/01/03 13:24:08;;;;;;;12.60;3.77;;;9.70;99.90;;;;;;5057923;28;20654;-63
2023/01/03 13:26:36;;;;;;;9.57;3.90;;;9.70;99.90;;;;;;5062604;28;20262;-64
2023/01/03 13:29:41;;;;;;;11.40;3.97;;;9.70;99.90;;;;;;5067005;28;20204;-64
2023/01/03 13:32:18;;;;;;;10.33;4.27;;;9.70;99.90;;;;;;5061574;28;20199;-64
2023/01/03 13:35:20;;;;;;;7.63;3.60;;;9.70;99.90;;;;;;5062174;28;20199;-63
2023/01/03 13:37:50;;;;;;;6.03;2.97;;;9.70;99.90;;;;;;5057156;28;20195;-62
2023/01/03 13:40:29;;;;;;;11.23;3.63;;;9.60;99.90;;;;;;5059776;28;20200;-63
2023/01/03 13:43:20;;;;;;;8.93;3.60;;;9.60;99.90;;;;;;5064381;28;20724;-63
2023/01/03 13:45:51;;;;;;;9.47;3.57;;;9.60;99.90;;;;;;5062949;28;20234;-64
2023/01/03 13:48:30;;;;;;;5.93;3.70;;;9.60;99.90;;;;;;5050109;28;20293;-63
2023/01/03 13:51:27;;;;;;;8.87;3.57;;;9.60;99.90;;;;;;5061598;28;20210;-63
2023/01/03 13:54:00;;;;;;;7.80;3.93;;;9.70;99.90;;;;;;5062180;28;20192;-63
2023/01/03 13:56:52;;;;;;;14.23;3.90;;;9.70;99.90;;;;;;5065621;28;20204;-63
2023/01/03 13:59:31;;;;;;;9.63;3.73;;;9.60;99.90;;;;;;5068362;28;20554;-65
2023/01/03 14:02:29;;;;;;;12.10;3.87;;;9.50;99.90;;;;;;5063630;28;20211;-63
2023/01/03 14:05:29;;;;;;;12.33;4.10;;;9.40;99.90;;;;;;5088260;27;20624;-63
2023/01/03 14:08:11;;;;;;;9.07;3.87;;;9.30;99.90;;;;;;5060535;28;20219;-63
2023/01/03 14:11:03;;;;;;;9.27;4.40;;;9.30;99.90;;;;;;5061191;28;20196;-63
2023/01/03 14:13:44;;;;;;;6.43;3.60;;;9.20;99.90;;;;;;5065034;28;20196;-64
2023/01/03 14:16:21;;;;;;;14.03;4.10;;;9.20;99.90;;;;;;5064553;28;20231;-65